sensor_id;sensor_type;location;lat;lon;timestamp;P1;durP1;ratioP1;P2;durP2;ratioP2
35562;SDS011;21665;40.108;18.302;2023-07-20T00:02:01;31.83;;;26.13;;
35562;SDS011;21665;40.108;18.302;2023-07-20T00:04:28;31.15;;;26.38;;
35562;SDS011;21665;40.108;18.302;2023-07-20T00:06:54;28.67;;;25.83;;
35562;SDS011;21665;40.108;18.302;2023-07-20T00:09:20;30.67;;;26.30;;
35562;SDS011;21665;40.108;18.302;2023-07-20T00:11:50;30.33;;;27.20;;
35562;SDS011;21665;40.108;18.302;2023-07-20T00:14:18;29.70;;;26.48;;
35562;SDS011;21665;40.108;18.302;2023-07-20T00:16:45;29.35;;;26.25;;
35562;SDS011;21665;40.108;18.302;2023-07-20T00:19:12;30.48;;;26.08;;
35562;SDS011;21665;40.108;18.302;2023-07-20T00:21:38;29.52;;;26.45;;
35562;SDS011;21665;40.108;18.302;2023-07-20T00:24:08;29.27;;;26.42;;
35562;SDS011;21665;40.108;18.302;2023-07-20T00:26:34;30.10;;;26.95;;
35562;SDS011;21665;40.108;18.302;2023-07-20T00:29:00;29.83;;;26.73;;
35562;SDS011;21665;40.108;18.302;2023-07-20T00:31:27;29.70;;;26.52;;
35562;SDS011;21665;40.108;18.302;2023-07-20T00:33:55;28.92;;;25.80;;
35562;SDS011;21665;40.108;18.302;2023-07-20T00:36:22;32.83;;;26.75;;
35562;SDS011;21665;40.108;18.302;2023-07-20T00:38:48;29.25;;;26.20;;
35562;SDS011;21665;40.108;18.302;2023-07-20T00:41:15;29.27;;;26.20;;
35562;SDS011;21665;40.108;18.302;2023-07-20T00:43:42;27.67;;;24.83;;
35562;SDS011;21665;40.108;18.302;2023-07-20T00:46:08;28.30;;;25.52;;
35562;SDS011;21665;40.108;18.302;2023-07-20T00:48:36;27.48;;;24.98;;
35562;SDS011;21665;40.108;18.302;2023-07-20T00:51:03;28.52;;;25.65;;
35562;SDS011;21665;40.108;18.302;2023-07-20T00:53:29;26.67;;;24.15;;
35562;SDS011;21665;40.108;18.302;2023-07-20T00:55:56;28.20;;;25.23;;
35562;SDS011;21665;40.108;18.302;2023-07-20T00:58:23;27.67;;;24.98;;
35562;SDS011;21665;40.108;18.302;2023-07-20T01:00:49;27.88;;;24.95;;
35562;SDS011;21665;40.108;18.302;2023-07-20T01:03:18;35.97;;;25.27;;
35562;SDS011;21665;40.108;18.302;2023-07-20T01:09:17;28.45;;;25.58;;
35562;SDS011;21665;40.108;18.302;2023-07-20T01:14:31;29.77;;;26.65;;
35562;SDS011;21665;40.108;18.302;2023-07-20T01:17:00;30.23;;;27.27;;
35562;SDS011;21665;40.108;18.302;2023-07-20T01:19:27;30.95;;;27.95;;
35562;SDS011;21665;40.108;18.302;2023-07-20T01:28:30;31.38;;;27.50;;
35562;SDS011;21665;40.108;18.302;2023-07-20T01:33:56;30.67;;;27.52;;
35562;SDS011;21665;40.108;18.302;2023-07-20T01:36:29;31.17;;;28.05;;
35562;SDS011;21665;40.108;18.302;2023-07-20T01:39:06;31.55;;;27.73;;
35562;SDS011;21665;40.108;18.302;2023-07-20T01:41:43;35.55;;;29.48;;
35562;SDS011;21665;40.108;18.302;2023-07-20T01:44:12;30.80;;;27.42;;
35562;SDS011;21665;40.108;18.302;2023-07-20T01:46:42;31.55;;;28.15;;
35562;SDS011;21665;40.108;18.302;2023-07-20T01:49:14;30.17;;;27.25;;
35562;SDS011;21665;40.108;18.302;2023-07-20T01:51:46;32.53;;;27.13;;
35562;SDS011;21665;40.108;18.302;2023-07-20T01:54:12;35.53;;;27.80;;
35562;SDS011;21665;40.108;18.302;2023-07-20T01:56:41;33.33;;;29.73;;
35562;SDS011;21665;40.108;18.302;2023-07-20T01:59:10;39.88;;;29.23;;
35562;SDS011;21665;40.108;18.302;2023-07-20T02:01:39;31.23;;;28.23;;
35562;SDS011;21665;40.108;18.302;2023-07-20T02:04:08;33.15;;;29.77;;
35562;SDS011;21665;40.108;18.302;2023-07-20T02:06:35;35.20;;;29.23;;
35562;SDS011;21665;40.108;18.302;2023-07-20T02:09:04;31.42;;;28.33;;
35562;SDS011;21665;40.108;18.302;2023-07-20T02:11:32;30.77;;;27.67;;
35562;SDS011;21665;40.108;18.302;2023-07-20T02:14:02;30.73;;;27.73;;
35562;SDS011;21665;40.108;18.302;2023-07-20T02:16:28;31.77;;;28.60;;
35562;SDS011;21665;40.108;18.302;2023-07-20T02:18:59;31.83;;;28.17;;
35562;SDS011;21665;40.108;18.302;2023-07-20T02:21:25;31.67;;;28.48;;
35562;SDS011;21665;40.108;18.302;2023-07-20T02:23:57;35.40;;;29.00;;
35562;SDS011;21665;40.108;18.302;2023-07-20T02:26:26;31.25;;;28.15;;
35562;SDS011;21665;40.108;18.302;2023-07-20T02:28:53;32.45;;;28.58;;
35562;SDS011;21665;40.108;18.302;2023-07-20T02:31:20;32.97;;;28.52;;
35562;SDS011;21665;40.108;18.302;2023-07-20T02:33:54;31.27;;;28.08;;
35562;SDS011;21665;40.108;18.302;2023-07-20T02:36:28;30.08;;;27.25;;
35562;SDS011;21665;40.108;18.302;2023-07-20T02:38:55;30.40;;;27.08;;
35562;SDS011;21665;40.108;18.302;2023-07-20T02:41:27;29.85;;;26.80;;
35562;SDS011;21665;40.108;18.302;2023-07-20T02:44:02;29.73;;;26.60;;
35562;SDS011;21665;40.108;18.302;2023-07-20T02:46:34;30.15;;;26.77;;
35562;SDS011;21665;40.108;18.302;2023-07-20T02:49:04;28.60;;;25.92;;
35562;SDS011;21665;40.108;18.302;2023-07-20T02:51:32;29.77;;;26.10;;
35562;SDS011;21665;40.108;18.302;2023-07-20T02:53:59;29.63;;;26.35;;
35562;SDS011;21665;40.108;18.302;2023-07-20T02:56:26;28.13;;;25.30;;
35562;SDS011;21665;40.108;18.302;2023-07-20T02:59:00;28.40;;;25.55;;
35562;SDS011;21665;40.108;18.302;2023-07-20T03:01:30;29.85;;;26.08;;
35562;SDS011;21665;40.108;18.302;2023-07-20T03:04:00;28.60;;;25.52;;
35562;SDS011;21665;40.108;18.302;2023-07-20T03:06:29;29.30;;;26.25;;
35562;SDS011;21665;40.108;18.302;2023-07-20T03:08:59;27.00;;;24.58;;
35562;SDS011;21665;40.108;18.302;2023-07-20T03:11:35;27.95;;;24.65;;
35562;SDS011;21665;40.108;18.302;2023-07-20T03:14:39;27.58;;;24.67;;
35562;SDS011;21665;40.108;18.302;2023-07-20T03:17:15;27.17;;;24.55;;
35562;SDS011;21665;40.108;18.302;2023-07-20T03:20:03;31.25;;;23.45;;
35562;SDS011;21665;40.108;18.302;2023-07-20T03:22:40;26.05;;;23.35;;
35562;SDS011;21665;40.108;18.302;2023-07-20T03:25:15;29.42;;;22.95;;
35562;SDS011;21665;40.108;18.302;2023-07-20T03:27:46;27.00;;;23.10;;
35562;SDS011;21665;40.108;18.302;2023-07-20T03:30:18;25.33;;;22.88;;
35562;SDS011;21665;40.108;18.302;2023-07-20T03:32:45;24.20;;;21.77;;
35562;SDS011;21665;40.108;18.302;2023-07-20T03:35:11;24.95;;;21.88;;
35562;SDS011;21665;40.108;18.302;2023-07-20T03:37:38;24.48;;;21.98;;
35562;SDS011;21665;40.108;18.302;2023-07-20T03:40:07;23.50;;;20.95;;
35562;SDS011;21665;40.108;18.302;2023-07-20T03:42:34;25.70;;;21.75;;
35562;SDS011;21665;40.108;18.302;2023-07-20T03:45:01;26.77;;;22.27;;
35562;SDS011;21665;40.108;18.302;2023-07-20T03:47:28;25.70;;;22.08;;
35562;SDS011;21665;40.108;18.302;2023-07-20T03:49:54;25.02;;;22.38;;
35562;SDS011;21665;40.108;18.302;2023-07-20T03:52:21;26.17;;;23.52;;
35562;SDS011;21665;40.108;18.302;2023-07-20T03:54:47;28.83;;;22.70;;
35562;SDS011;21665;40.108;18.302;2023-07-20T04:02:17;24.77;;;22.33;;
35562;SDS011;21665;40.108;18.302;2023-07-20T04:04:43;24.52;;;22.00;;
35562;SDS011;21665;40.108;18.302;2023-07-20T04:07:09;25.73;;;22.90;;
35562;SDS011;21665;40.108;18.302;2023-07-20T04:09:36;24.35;;;22.08;;
35562;SDS011;21665;40.108;18.302;2023-07-20T04:12:02;25.45;;;22.88;;
35562;SDS011;21665;40.108;18.302;2023-07-20T04:14:29;28.75;;;23.17;;
35562;SDS011;21665;40.108;18.302;2023-07-20T04:16:55;25.83;;;22.42;;
35562;SDS011;21665;40.108;18.302;2023-07-20T04:19:22;25.08;;;22.60;;
35562;SDS011;21665;40.108;18.302;2023-07-20T04:21:48;26.20;;;22.58;;
35562;SDS011;21665;40.108;18.302;2023-07-20T04:24:14;25.45;;;22.95;;
35562;SDS011;21665;40.108;18.302;2023-07-20T04:26:41;25.05;;;22.50;;
35562;SDS011;21665;40.108;18.302;2023-07-20T04:29:08;26.35;;;23.17;;
35562;SDS011;21665;40.108;18.302;2023-07-20T04:31:39;24.85;;;22.33;;
35562;SDS011;21665;40.108;18.302;2023-07-20T04:34:05;25.40;;;22.88;;
35562;SDS011;21665;40.108;18.302;2023-07-20T04:36:34;29.75;;;23.88;;
35562;SDS011;21665;40.108;18.302;2023-07-20T04:39:00;25.92;;;23.15;;
35562;SDS011;21665;40.108;18.302;2023-07-20T04:41:33;25.23;;;22.77;;
35562;SDS011;21665;40.108;18.302;2023-07-20T04:44:01;26.92;;;23.88;;
35562;SDS011;21665;40.108;18.302;2023-07-20T04:46:29;26.70;;;23.95;;
35562;SDS011;21665;40.108;18.302;2023-07-20T04:48:57;26.88;;;24.02;;
35562;SDS011;21665;40.108;18.302;2023-07-20T04:51:26;27.38;;;24.65;;
35562;SDS011;21665;40.108;18.302;2023-07-20T04:53:54;28.50;;;23.88;;
35562;SDS011;21665;40.108;18.302;2023-07-20T04:56:22;26.60;;;23.98;;
35562;SDS011;21665;40.108;18.302;2023-07-20T04:58:51;26.95;;;24.30;;
35562;SDS011;21665;40.108;18.302;2023-07-20T05:01:17;30.38;;;24.23;;
35562;SDS011;21665;40.108;18.302;2023-07-20T05:03:43;30.25;;;25.20;;
35562;SDS011;21665;40.108;18.302;2023-07-20T05:06:10;27.67;;;24.25;;
35562;SDS011;21665;40.108;18.302;2023-07-20T05:08:36;28.02;;;25.30;;
35562;SDS011;21665;40.108;18.302;2023-07-20T05:11:03;26.98;;;24.83;;
35562;SDS011;21665;40.108;18.302;2023-07-20T05:13:30;31.23;;;26.25;;
35562;SDS011;21665;40.108;18.302;2023-07-20T05:15:56;27.88;;;25.38;;
35562;SDS011;21665;40.108;18.302;2023-07-20T05:18:23;27.92;;;25.52;;
35562;SDS011;21665;40.108;18.302;2023-07-20T05:20:50;30.05;;;25.13;;
35562;SDS011;21665;40.108;18.302;2023-07-20T05:23:17;29.13;;;26.08;;
35562;SDS011;21665;40.108;18.302;2023-07-20T05:25:45;30.05;;;26.58;;
35562;SDS011;21665;40.108;18.302;2023-07-20T05:28:12;29.48;;;26.50;;
35562;SDS011;21665;40.108;18.302;2023-07-20T05:34:29;28.83;;;25.90;;
35562;SDS011;21665;40.108;18.302;2023-07-20T07:30:34;27.77;;;25.40;;
35562;SDS011;21665;40.108;18.302;2023-07-20T07:33:01;28.80;;;26.00;;
35562;SDS011;21665;40.108;18.302;2023-07-20T07:35:27;27.80;;;25.05;;
35562;SDS011;21665;40.108;18.302;2023-07-20T07:37:53;27.52;;;25.05;;
35562;SDS011;21665;40.108;18.302;2023-07-20T07:40:19;27.02;;;24.98;;
35562;SDS011;21665;40.108;18.302;2023-07-20T07:42:46;28.33;;;25.63;;
35562;SDS011;21665;40.108;18.302;2023-07-20T07:45:13;31.30;;;25.63;;
35562;SDS011;21665;40.108;18.302;2023-07-20T07:47:43;26.73;;;24.60;;
35562;SDS011;21665;40.108;18.302;2023-07-20T07:50:10;27.52;;;25.27;;
35562;SDS011;21665;40.108;18.302;2023-07-20T07:52:39;27.58;;;25.20;;
35562;SDS011;21665;40.108;18.302;2023-07-20T07:55:05;27.05;;;24.75;;
35562;SDS011;21665;40.108;18.302;2023-07-20T07:57:32;27.67;;;25.42;;
35562;SDS011;21665;40.108;18.302;2023-07-20T07:59:58;28.67;;;26.17;;
35562;SDS011;21665;40.108;18.302;2023-07-20T08:02:25;30.88;;;26.80;;
35562;SDS011;21665;40.108;18.302;2023-07-20T08:04:51;28.83;;;26.52;;
35562;SDS011;21665;40.108;18.302;2023-07-20T08:07:17;27.58;;;25.23;;
35562;SDS011;21665;40.108;18.302;2023-07-20T08:09:43;28.42;;;25.75;;
35562;SDS011;21665;40.108;18.302;2023-07-20T08:12:10;29.40;;;26.05;;
35562;SDS011;21665;40.108;18.302;2023-07-20T08:14:36;28.02;;;25.73;;
35562;SDS011;21665;40.108;18.302;2023-07-20T08:17:02;28.45;;;25.75;;
35562;SDS011;21665;40.108;18.302;2023-07-20T08:19:28;30.38;;;27.05;;
35562;SDS011;21665;40.108;18.302;2023-07-20T08:21:54;35.67;;;25.95;;
35562;SDS011;21665;40.108;18.302;2023-07-20T08:24:21;28.42;;;25.25;;
35562;SDS011;21665;40.108;18.302;2023-07-20T08:26:47;30.38;;;26.40;;
35562;SDS011;21665;40.108;18.302;2023-07-20T08:29:13;28.90;;;25.95;;
35562;SDS011;21665;40.108;18.302;2023-07-20T08:31:39;27.60;;;24.98;;
35562;SDS011;21665;40.108;18.302;2023-07-20T08:34:06;27.15;;;24.45;;
35562;SDS011;21665;40.108;18.302;2023-07-20T08:36:32;28.50;;;25.75;;
35562;SDS011;21665;40.108;18.302;2023-07-20T08:38:58;27.65;;;25.23;;
35562;SDS011;21665;40.108;18.302;2023-07-20T08:41:25;33.97;;;25.58;;
35562;SDS011;21665;40.108;18.302;2023-07-20T08:43:51;31.80;;;24.55;;
35562;SDS011;21665;40.108;18.302;2023-07-20T08:46:22;31.67;;;25.83;;
35562;SDS011;21665;40.108;18.302;2023-07-20T08:48:50;28.83;;;26.02;;
35562;SDS011;21665;40.108;18.302;2023-07-20T08:51:22;28.65;;;25.63;;
